Time;durP1;ratioP1;P1;durP2;ratioP2;P2;SDS_P1;SDS_P2;PMS_P1;PMS_P2;Temp;Humidity;BMP_temperature;BMP_pressure;BME280_temperature;BME280_humidity;BME280_pressure;Samples;Min_cycle;Max_cycle;Signal;HPM_P1;HPM_P2
2021/11/16 00:01:37;;;;;;;76.80;42.83;;;;;;;;;;4455954;32;20232;-55
2021/11/16 00:04:03;;;;;;;75.77;40.97;;;;;;;;;;4457782;32;20604;-54
2021/11/16 00:06:29;;;;;;;77.47;40.80;;;;;;;;;;4457786;32;20248;-54
2021/11/16 00:08:54;;;;;;;71.97;42.67;;;;;;;;;;4458006;32;20346;-57
2021/11/16 00:11:20;;;;;;;74.83;43.33;;;;;;;;;;4455668;32;20573;-54
2021/11/16 00:13:46;;;;;;;75.00;42.93;;;;;;;;;;4456732;32;20315;-54
2021/11/16 00:16:12;;;;;;;74.20;42.27;;;;;;;;;;4458396;32;20668;-54
2021/11/16 00:18:37;;;;;;;72.40;41.83;;;;;;;;;;4449127;32;20358;-55
2021/11/16 00:21:05;;;;;;;83.83;41.20;;;;;;;;;;4460869;32;20228;-54
2021/11/16 00:23:35;;;;;;;68.13;38.43;;;;;;;;;;4457747;32;20723;-55
2021/11/16 00:26:05;;;;;;;69.30;39.47;;;;;;;;;;4455478;32;20357;-54
2021/11/16 00:28:31;;;;;;;56.13;33.73;;;;;;;;;;4457070;32;20271;-56
2021/11/16 00:30:57;;;;;;;52.13;30.57;;;;;;;;;;4451893;32;20251;-54
2021/11/16 00:33:23;;;;;;;51.53;28.70;;;;;;;;;;4456576;32;20275;-56
2021/11/16 00:35:50;;;;;;;54.83;26.73;;;;;;;;;;4452205;32;20260;-54
2021/11/16 00:38:18;;;;;;;40.47;20.73;;;;;;;;;;4457582;32;20251;-54
2021/11/16 00:40:45;;;;;;;36.20;20.80;;;;;;;;;;4463715;32;20212;-54
2021/11/16 00:43:11;;;;;;;28.83;19.17;;;;;;;;;;4456294;32;20902;-53
2021/11/16 00:45:40;;;;;;;40.63;21.77;;;;;;;;;;4456381;32;20582;-54
2021/11/16 00:48:07;;;;;;;31.43;19.90;;;;;;;;;;4456355;32;20257;-55
2021/11/16 00:50:35;;;;;;;38.70;21.77;;;;;;;;;;4449223;32;20561;-54
2021/11/16 00:53:01;;;;;;;43.33;23.67;;;;;;;;;;4454921;32;20346;-52
2021/11/16 00:55:26;;;;;;;38.83;22.17;;;;;;;;;;4457393;32;20203;-54
2021/11/16 00:57:52;;;;;;;37.80;22.67;;;;;;;;;;4454547;32;20244;-54
2021/11/16 01:00:18;;;;;;;37.00;21.37;;;;;;;;;;4454121;32;20345;-53
2021/11/16 01:02:45;;;;;;;41.57;24.10;;;;;;;;;;4453435;32;20376;-54
2021/11/16 01:05:14;;;;;;;30.50;19.90;;;;;;;;;;4458486;32;20314;-53
2021/11/16 01:07:41;;;;;;;31.67;20.73;;;;;;;;;;4462561;32;20255;-54
2021/11/16 01:10:12;;;;;;;36.23;21.80;;;;;;;;;;4463926;32;20209;-53
2021/11/16 01:12:38;;;;;;;33.83;20.83;;;;;;;;;;4456672;32;20811;-53
2021/11/16 01:15:07;;;;;;;31.57;20.57;;;;;;;;;;4461477;32;20211;-54
2021/11/16 01:17:33;;;;;;;33.90;20.80;;;;;;;;;;4462947;32;20244;-54
2021/11/16 01:19:59;;;;;;;32.87;19.70;;;;;;;;;;4457272;32;20242;-53
2021/11/16 01:22:25;;;;;;;41.77;25.73;;;;;;;;;;4453416;32;20336;-53
2021/11/16 01:24:51;;;;;;;50.00;26.70;;;;;;;;;;4459935;32;20333;-53
2021/11/16 01:27:20;;;;;;;60.27;33.67;;;;;;;;;;4451932;32;20224;-53
2021/11/16 01:29:48;;;;;;;54.57;30.30;;;;;;;;;;4453978;32;20249;-54
2021/11/16 01:32:27;;;;;;;52.20;29.60;;;;;;;;;;4463849;32;20333;-55
2021/11/16 01:34:53;;;;;;;63.80;31.93;;;;;;;;;;4463762;32;20317;-54
2021/11/16 01:37:20;;;;;;;51.47;29.73;;;;;;;;;;4451346;32;20653;-54
2021/11/16 01:39:46;;;;;;;57.33;31.10;;;;;;;;;;4463070;32;20260;-54
2021/11/16 01:42:12;;;;;;;52.40;29.30;;;;;;;;;;4458848;32;20254;-54
2021/11/16 01:44:38;;;;;;;47.93;27.70;;;;;;;;;;4459916;32;20216;-53
2021/11/16 01:47:04;;;;;;;50.43;27.37;;;;;;;;;;4463907;32;20299;-54
2021/11/16 01:49:29;;;;;;;54.83;30.57;;;;;;;;;;4458627;32;20282;-54
2021/11/16 01:51:55;;;;;;;61.77;34.67;;;;;;;;;;4459200;32;20275;-54
2021/11/16 01:54:20;;;;;;;78.20;41.40;;;;;;;;;;4463428;32;20275;-53
2021/11/16 01:56:46;;;;;;;82.57;41.07;;;;;;;;;;4455169;32;20661;-53
2021/11/16 01:59:14;;;;;;;86.93;47.67;;;;;;;;;;4459195;32;20319;-53
2021/11/16 02:01:40;;;;;;;91.27;53.27;;;;;;;;;;4461761;32;20255;-53
2021/11/16 02:04:08;;;;;;;112.67;55.17;;;;;;;;;;4454734;32;20318;-52
2021/11/16 02:06:38;;;;;;;85.10;49.00;;;;;;;;;;4454507;32;20441;-53
2021/11/16 02:09:07;;;;;;;85.93;46.27;;;;;;;;;;4449103;32;20259;-51
2021/11/16 02:11:33;;;;;;;79.50;45.30;;;;;;;;;;4463323;32;20236;-52
2021/11/16 02:13:59;;;;;;;82.87;43.47;;;;;;;;;;4461075;32;20294;-52
2021/11/16 02:16:24;;;;;;;80.13;43.33;;;;;;;;;;4456890;32;20621;-52
2021/11/16 02:18:50;;;;;;;77.33;43.03;;;;;;;;;;4457096;32;20299;-52
2021/11/16 02:21:16;;;;;;;85.57;44.17;;;;;;;;;;4462932;32;20260;-52
2021/11/16 02:23:43;;;;;;;90.50;44.97;;;;;;;;;;4451749;32;20310;-52
2021/11/16 02:26:10;;;;;;;82.90;41.97;;;;;;;;;;4457358;32;20247;-52
2021/11/16 02:28:36;;;;;;;80.80;40.57;;;;;;;;;;4450591;32;20299;-51
2021/11/16 02:31:04;;;;;;;88.07;44.07;;;;;;;;;;4461035;32;20232;-51
2021/11/16 02:33:30;;;;;;;89.57;45.33;;;;;;;;;;4454978;32;20227;-53
2021/11/16 02:35:56;;;;;;;87.03;44.47;;;;;;;;;;4450607;32;20300;-51
2021/11/16 02:38:21;;;;;;;77.07;40.90;;;;;;;;;;4450579;32;20457;-55
2021/11/16 02:40:47;;;;;;;80.23;44.83;;;;;;;;;;4464230;32;20208;-53
2021/11/16 02:43:13;;;;;;;86.03;47.67;;;;;;;;;;4465755;32;20247;-54
2021/11/16 02:45:41;;;;;;;105.80;56.40;;;;;;;;;;4464494;32;20255;-54
2021/11/16 02:48:13;;;;;;;109.93;58.80;;;;;;;;;;4460702;32;20295;-52
2021/11/16 02:50:45;;;;;;;104.07;60.73;;;;;;;;;;4458633;32;20251;-52
2021/11/16 02:53:11;;;;;;;101.23;59.50;;;;;;;;;;4466006;32;20287;-53
2021/11/16 02:55:37;;;;;;;102.37;54.83;;;;;;;;;;4464678;32;20240;-53
2021/11/16 02:58:04;;;;;;;100.37;54.83;;;;;;;;;;4454241;32;20215;-53
2021/11/16 03:00:31;;;;;;;102.90;57.43;;;;;;;;;;4455742;32;20319;-53
2021/11/16 03:02:58;;;;;;;98.30;57.27;;;;;;;;;;4465663;32;20693;-54
2021/11/16 03:05:29;;;;;;;95.07;53.70;;;;;;;;;;4465346;32;20231;-53
2021/11/16 03:07:57;;;;;;;96.33;54.70;;;;;;;;;;4449188;32;20345;-55
2021/11/16 03:10:26;;;;;;;86.47;49.07;;;;;;;;;;4455134;32;20216;-54
2021/11/16 03:12:51;;;;;;;77.43;47.57;;;;;;;;;;4465584;32;20239;-54
2021/11/16 03:15:19;;;;;;;93.47;49.93;;;;;;;;;;4465452;32;20274;-54
2021/11/16 03:17:45;;;;;;;82.30;46.87;;;;;;;;;;4452875;32;20322;-54
2021/11/16 03:20:12;;;;;;;84.97;44.37;;;;;;;;;;4465321;32;20314;-53
2021/11/16 03:22:42;;;;;;;81.37;45.27;;;;;;;;;;4457366;32;20248;-54
2021/11/16 03:25:08;;;;;;;95.53;48.53;;;;;;;;;;4461965;32;20283;-54
2021/11/16 03:27:38;;;;;;;84.27;47.63;;;;;;;;;;4464676;32;20357;-53
2021/11/16 03:30:04;;;;;;;78.07;45.83;;;;;;;;;;4458578;32;20217;-53
2021/11/16 03:32:38;;;;;;;88.30;47.30;;;;;;;;;;4456624;32;20387;-53
2021/11/16 03:35:07;;;;;;;90.97;47.93;;;;;;;;;;4455649;32;20243;-53
2021/11/16 03:37:38;;;;;;;82.07;44.63;;;;;;;;;;4463999;32;20228;-54
2021/11/16 03:40:04;;;;;;;80.23;41.07;;;;;;;;;;4449964;32;20267;-53
2021/11/16 03:42:30;;;;;;;72.47;37.40;;;;;;;;;;4456414;32;20337;-53
2021/11/16 03:44:56;;;;;;;67.77;37.17;;;;;;;;;;4462595;32;20684;-54
2021/11/16 03:47:21;;;;;;;53.77;32.67;;;;;;;;;;4451357;32;20232;-53
2021/11/16 03:49:48;;;;;;;46.20;28.47;;;;;;;;;;4451856;32;20291;-54
2021/11/16 03:52:13;;;;;;;34.93;22.67;;;;;;;;;;4464995;32;20323;-54
2021/11/16 03:54:39;;;;;;;36.50;21.40;;;;;;;;;;4464986;32;20311;-55
2021/11/16 03:57:05;;;;;;;31.80;19.70;;;;;;;;;;4454658;32;20691;-53
2021/11/16 03:59:31;;;;;;;32.67;19.47;;;;;;;;;;4462895;32;20315;-55
2021/11/16 04:01:58;;;;;;;25.67;16.63;;;;;;;;;;4464979;32;20271;-54
2021/11/16 04:04:25;;;;;;;25.57;17.13;;;;;;;;;;4464321;32;20842;-55
2021/11/16 04:06:50;;;;;;;23.33;14.83;;;;;;;;;;4465096;32;20379;-53
2021/11/16 04:09:16;;;;;;;25.73;15.73;;;;;;;;;;4460836;32;20287;-53
2021/11/16 04:11:41;;;;;;;26.50;15.43;;;;;;;;;;4458747;32;20697;-53
2021/11/16 04:14:07;;;;;;;23.00;14.43;;;;;;;;;;4464891;32;20743;-56
2021/11/16 04:16:32;;;;;;;22.27;13.60;;;;;;;;;;4457832;32;20233;-53
2021/11/16 04:18:58;;;;;;;21.37;14.73;;;;;;;;;;4459397;32;20291;-53
2021/11/16 04:21:23;;;;;;;21.63;14.17;;;;;;;;;;4463825;32;20259;-53
2021/11/16 04:23:49;;;;;;;25.83;14.90;;;;;;;;;;4451467;32;20292;-54
2021/11/16 04:26:14;;;;;;;22.63;14.30;;;;;;;;;;4463841;32;20252;-52
2021/11/16 04:28:40;;;;;;;21.03;14.67;;;;;;;;;;4458753;32;20299;-52
2021/11/16 04:31:06;;;;;;;26.83;16.10;;;;;;;;;;4460151;32;20248;-52
2021/11/16 04:33:31;;;;;;;26.10;16.23;;;;;;;;;;4462670;32;20279;-53
2021/11/16 04:35:57;;;;;;;29.23;18.07;;;;;;;;;;4460765;32;20304;-53
2021/11/16 04:38:23;;;;;;;32.87;16.27;;;;;;;;;;4455034;32;20708;-53
2021/11/16 04:40:54;;;;;;;26.23;17.43;;;;;;;;;;4464512;32;20268;-53
2021/11/16 04:43:25;;;;;;;31.43;18.87;;;;;;;;;;4453702;32;20236;-53
2021/11/16 04:45:53;;;;;;;25.57;17.20;;;;;;;;;;4451445;32;20311;-53
2021/11/16 05:04:43;;;;;;;23.90;16.07;;;;;;;;;;4456460;32;20280;-53
2021/11/16 05:07:15;;;;;;;24.53;15.70;;;;;;;;;;4451650;32;20699;-53
2021/11/16 05:09:52;;;;;;;27.23;17.43;;;;;;;;;;4450212;32;20401;-52
2021/11/16 05:12:18;;;;;;;36.13;19.40;;;;;;;;;;4464100;32;20697;-54
2021/11/16 05:14:43;;;;;;;25.90;17.23;;;;;;;;;;4460314;32;20240;-57
2021/11/16 05:17:09;;;;;;;27.37;18.27;;;;;;;;;;4452864;32;20308;-51
2021/11/16 05:19:34;;;;;;;29.57;18.33;;;;;;;;;;4462086;32;20564;-53
2021/11/16 05:22:00;;;;;;;36.17;19.40;;;;;;;;;;4460280;32;20348;-52
2021/11/16 05:24:26;;;;;;;39.80;21.43;;;;;;;;;;4455542;32;20600;-53
2021/11/16 05:26:52;;;;;;;31.53;19.83;;;;;;;;;;4454592;32;20257;-53
2021/11/16 05:29:18;;;;;;;42.83;23.10;;;;;;;;;;4460539;32;20300;-53
2021/11/16 05:31:43;;;;;;;38.67;24.87;;;;;;;;;;4462061;32;20622;-53
2021/11/16 05:34:09;;;;;;;45.93;23.37;;;;;;;;;;4450436;32;20208;-52
2021/11/16 05:36:34;;;;;;;39.47;24.60;;;;;;;;;;4457289;32;20258;-53
2021/11/16 05:39:00;;;;;;;52.40;31.10;;;;;;;;;;4459711;32;20321;-54
2021/11/16 05:41:26;;;;;;;49.37;30.70;;;;;;;;;;4451075;32;20223;-53
2021/11/16 05:43:51;;;;;;;55.07;29.77;;;;;;;;;;4459626;32;20260;-54
2021/11/16 05:46:21;;;;;;;54.27;30.30;;;;;;;;;;4452738;32;20243;-53
2021/11/16 05:48:47;;;;;;;58.93;31.43;;;;;;;;;;4455015;32;20240;-53
2021/11/16 05:51:13;;;;;;;62.07;31.37;;;;;;;;;;4448270;32;20310;-53
2021/11/16 05:53:40;;;;;;;60.17;32.50;;;;;;;;;;4460091;32;20244;-52
2021/11/16 05:56:06;;;;;;;52.33;31.10;;;;;;;;;;4457708;32;20232;-53
2021/11/16 05:58:32;;;;;;;52.07;30.00;;;;;;;;;;4447514;32;20271;-53
2021/11/16 06:00:58;;;;;;;52.40;29.67;;;;;;;;;;4458515;32;20298;-53
2021/11/16 06:03:23;;;;;;;48.63;28.30;;;;;;;;;;4454555;32;20873;-54
2021/11/16 06:05:49;;;;;;;52.53;28.93;;;;;;;;;;4454108;32;20350;-52
2021/11/16 06:08:23;;;;;;;47.13;27.57;;;;;;;;;;4464776;32;20638;-53
2021/11/16 06:10:48;;;;;;;49.43;27.53;;;;;;;;;;4459376;32;20247;-54
2021/11/16 06:13:14;;;;;;;57.27;32.00;;;;;;;;;;4466562;32;20617;-55
2021/11/16 06:15:40;;;;;;;65.37;38.37;;;;;;;;;;4464967;32;20287;-55
2021/11/16 06:18:05;;;;;;;71.63;36.80;;;;;;;;;;4455037;32;20223;-55
2021/11/16 06:20:32;;;;;;;61.50;34.07;;;;;;;;;;4466793;32;20300;-56
2021/11/16 06:22:58;;;;;;;56.83;34.27;;;;;;;;;;4465024;32;20299;-53
2021/11/16 06:25:23;;;;;;;59.40;35.17;;;;;;;;;;4463142;32;20747;-55
2021/11/16 06:27:49;;;;;;;69.93;36.03;;;;;;;;;;4463628;32;20265;-53
2021/11/16 06:30:14;;;;;;;58.67;35.97;;;;;;;;;;4464695;32;20271;-55
2021/11/16 06:32:40;;;;;;;66.97;38.47;;;;;;;;;;4466336;32;20342;-54
2021/11/16 06:35:09;;;;;;;71.53;41.10;;;;;;;;;;4464075;32;20377;-55
2021/11/16 06:37:34;;;;;;;74.07;40.33;;;;;;;;;;4466193;32;20308;-54
2021/11/16 06:40:00;;;;;;;76.07;41.57;;;;;;;;;;4459684;32;20745;-53
2021/11/16 06:42:25;;;;;;;58.07;34.53;;;;;;;;;;4456808;32;20274;-55
2021/11/16 06:44:51;;;;;;;61.83;36.23;;;;;;;;;;4465989;32;20810;-54
2021/11/16 06:47:17;;;;;;;65.33;33.40;;;;;;;;;;4453200;32;20233;-54
2021/11/16 06:49:52;;;;;;;58.53;33.40;;;;;;;;;;4461660;32;20927;-54
2021/11/16 06:52:19;;;;;;;66.53;36.40;;;;;;;;;;4464762;32;20552;-54
2021/11/16 06:54:45;;;;;;;69.37;34.10;;;;;;;;;;4456473;32;20306;-53
2021/11/16 06:57:12;;;;;;;66.87;31.33;;;;;;;;;;4460814;32;20378;-55
2021/11/16 06:59:39;;;;;;;53.67;31.67;;;;;;;;;;4451846;32;20399;-54
2021/11/16 07:02:05;;;;;;;69.37;32.03;;;;;;;;;;4456140;32;20317;-54
2021/11/16 07:04:36;;;;;;;48.93;28.70;;;;;;;;;;4456352;32;20856;-55
2021/11/16 07:07:01;;;;;;;56.57;32.27;;;;;;;;;;4454308;32;20278;-54
2021/11/16 07:09:32;;;;;;;66.80;37.30;;;;;;;;;;4456486;32;20310;-54
2021/11/16 07:11:58;;;;;;;55.07;33.93;;;;;;;;;;4454949;32;20328;-54
2021/11/16 07:14:36;;;;;;;66.10;31.47;;;;;;;;;;4457573;32;20299;-54
2021/11/16 07:17:03;;;;;;;65.87;33.63;;;;;;;;;;4456913;32;20311;-54
2021/11/16 07:19:32;;;;;;;57.50;31.13;;;;;;;;;;4451514;32;20248;-53
2021/11/16 07:22:03;;;;;;;46.53;29.37;;;;;;;;;;4454523;32;20274;-55
2021/11/16 07:24:31;;;;;;;43.60;27.07;;;;;;;;;;4457698;32;20302;-55
2021/11/16 07:27:02;;;;;;;42.00;26.73;;;;;;;;;;4466002;32;20219;-54
2021/11/16 07:29:38;;;;;;;43.57;25.37;;;;;;;;;;4454429;32;20416;-54
2021/11/16 07:32:06;;;;;;;42.23;24.73;;;;;;;;;;4466112;32;20220;-54
2021/11/16 07:34:33;;;;;;;63.87;26.73;;;;;;;;;;4465381;32;20244;-54
2021/11/16 07:37:03;;;;;;;48.27;27.20;;;;;;;;;;4455853;32;20686;-55
2021/11/16 07:39:31;;;;;;;44.77;23.90;;;;;;;;;;4463356;32;20982;-55
2021/11/16 07:42:09;;;;;;;36.67;20.90;;;;;;;;;;4462151;32;20332;-54
2021/11/16 07:44:36;;;;;;;36.30;20.70;;;;;;;;;;4451119;32;20221;-55
2021/11/16 07:47:02;;;;;;;44.30;23.97;;;;;;;;;;4456741;32;20217;-54
2021/11/16 07:49:28;;;;;;;39.03;21.30;;;;;;;;;;4454221;32;20236;-54
2021/11/16 07:51:55;;;;;;;43.70;23.40;;;;;;;;;;4466617;32;20345;-54
2021/11/16 07:54:22;;;;;;;36.63;21.07;;;;;;;;;;4449814;32;20283;-54
2021/11/16 07:56:48;;;;;;;33.33;18.40;;;;;;;;;;4450827;32;20258;-55
2021/11/16 07:59:17;;;;;;;29.87;17.50;;;;;;;;;;4457250;32;20525;-54
2021/11/16 08:06:52;;;;;;;30.80;16.60;;;;;;;;;;4451166;32;20318;-55
2021/11/16 08:09:26;;;;;;;27.03;15.80;;;;;;;;;;4453334;32;20219;-55
2021/11/16 08:14:35;;;;;;;23.33;16.27;;;;;;;;;;4459904;32;20250;-54
2021/11/16 08:17:04;;;;;;;23.00;14.00;;;;;;;;;;4454573;32;20584;-54
2021/11/16 08:19:33;;;;;;;31.33;17.70;;;;;;;;;;4457522;32;20365;-55
2021/11/16 08:22:03;;;;;;;32.37;18.80;;;;;;;;;;4450422;32;20327;-54
2021/11/16 08:24:31;;;;;;;34.23;20.27;;;;;;;;;;4451244;32;20236;-55
2021/11/16 08:26:59;;;;;;;40.97;22.37;;;;;;;;;;4457046;32;20286;-55
2021/11/16 08:29:27;;;;;;;39.53;22.43;;;;;;;;;;4456128;32;20672;-55
2021/11/16 08:32:02;;;;;;;41.03;22.40;;;;;;;;;;4451928;32;20355;-54
2021/11/16 08:34:33;;;;;;;35.13;21.73;;;;;;;;;;4459656;32;20267;-55
2021/11/16 08:37:00;;;;;;;43.57;20.17;;;;;;;;;;4452770;32;20239;-55
2021/11/16 08:39:36;;;;;;;41.83;20.20;;;;;;;;;;4455146;32;20255;-55
2021/11/16 08:42:17;;;;;;;31.47;17.60;;;;;;;;;;4457063;32;20220;-55
2021/11/16 08:44:55;;;;;;;28.40;17.07;;;;;;;;;;4460486;32;20694;-55
2021/11/16 08:47:26;;;;;;;23.07;13.93;;;;;;;;;;4455551;32;20482;-55
2021/11/16 08:49:51;;;;;;;22.17;15.03;;;;;;;;;;4455315;32;20212;-55
2021/11/16 08:52:17;;;;;;;14.37;10.37;;;;;;;;;;4454180;32;20656;-55
2021/11/16 08:54:57;;;;;;;29.03;16.97;;;;;;;;;;4461336;32;20262;-55
2021/11/16 08:57:25;;;;;;;24.60;15.30;;;;;;;;;;4454598;32;20259;-55
2021/11/16 08:59:51;;;;;;;17.43;10.27;;;;;;;;;;4454773;32;20696;-55
2021/11/16 09:02:21;;;;;;;13.40;9.30;;;;;;;;;;4458506;32;20684;-56
2021/11/16 09:04:46;;;;;;;21.10;11.83;;;;;;;;;;4455410;32;20569;-55
2021/11/16 09:07:15;;;;;;;22.60;14.17;;;;;;;;;;4456599;32;20221;-55
2021/11/16 09:10:07;;;;;;;20.87;12.63;;;;;;;;;;4459086;32;20359;-55
2021/11/16 09:12:46;;;;;;;16.73;10.50;;;;;;;;;;4456867;32;20250;-55
2021/11/16 09:15:19;;;;;;;15.77;9.97;;;;;;;;;;4459301;32;20223;-55
2021/11/16 09:17:45;;;;;;;13.63;9.63;;;;;;;;;;4452737;32;20323;-57
2021/11/16 09:20:20;;;;;;;12.10;8.83;;;;;;;;;;4455038;32;20283;-56
2021/11/16 09:22:46;;;;;;;16.37;10.03;;;;;;;;;;4457242;32;20608;-54
2021/11/16 09:25:24;;;;;;;20.23;8.33;;;;;;;;;;4450231;32;20327;-56
2021/11/16 09:27:59;;;;;;;15.63;7.67;;;;;;;;;;4450388;32;20258;-55
2021/11/16 09:30:37;;;;;;;11.07;8.10;;;;;;;;;;4464415;32;20624;-55
2021/11/16 09:33:10;;;;;;;17.17;10.83;;;;;;;;;;4458780;32;20266;-55
2021/11/16 09:35:49;;;;;;;13.17;7.73;;;;;;;;;;4461140;32;20530;-54
2021/11/16 09:38:54;;;;;;;15.70;9.33;;;;;;;;;;4453746;32;20612;-55
2021/11/16 09:41:29;;;;;;;12.10;8.40;;;;;;;;;;4460517;32;20278;-55
2021/11/16 09:44:10;;;;;;;11.73;8.10;;;;;;;;;;4446898;32;20540;-54
2021/11/16 09:46:51;;;;;;;14.40;8.70;;;;;;;;;;4447841;32;20245;-54
2021/11/16 09:49:24;;;;;;;12.93;8.07;;;;;;;;;;4459045;32;20221;-54
2021/11/16 09:52:10;;;;;;;13.93;7.83;;;;;;;;;;4450022;32;20540;-55
2021/11/16 09:54:52;;;;;;;12.47;7.77;;;;;;;;;;4463326;32;20244;-54
2021/11/16 09:57:25;;;;;;;9.97;7.07;;;;;;;;;;4463140;32;20220;-55
2021/11/16 09:59:59;;;;;;;9.90;7.20;;;;;;;;;;4446571;32;20688;-54
2021/11/16 10:02:28;;;;;;;15.77;9.10;;;;;;;;;;4453055;32;20539;-55
2021/11/16 10:05:01;;;;;;;138.57;67.10;;;;;;;;;;4456481;32;20242;-56
2021/11/16 10:07:27;;;;;;;119.47;76.67;;;;;;;;;;4448335;32;20449;-54
2021/11/16 10:09:53;;;;;;;19.67;12.33;;;;;;;;;;4454069;32;20391;-55
2021/11/16 10:12:23;;;;;;;11.87;7.90;;;;;;;;;;4452685;32;20371;-55
2021/11/16 10:14:49;;;;;;;18.17;13.50;;;;;;;;;;4453499;32;20619;-54
2021/11/16 10:17:15;;;;;;;12.13;7.17;;;;;;;;;;4454544;32;20301;-54
2021/11/16 10:19:40;;;;;;;13.77;6.47;;;;;;;;;;4455813;32;20303;-55
2021/11/16 10:22:11;;;;;;;14.93;8.00;;;;;;;;;;4451239;32;20345;-54
2021/11/16 10:24:37;;;;;;;21.07;8.77;;;;;;;;;;4450194;32;20251;-54
2021/11/16 10:27:23;;;;;;;14.50;8.47;;;;;;;;;;4458573;32;20749;-56
2021/11/16 10:30:28;;;;;;;81.03;64.60;;;;;;;;;;4448884;32;20554;-55
2021/11/16 10:33:16;;;;;;;15.20;9.90;;;;;;;;;;4422632;32;20235;-55
2021/11/16 10:35:54;;;;;;;16.73;9.10;;;;;;;;;;4456249;32;20255;-57
2021/11/16 10:38:33;;;;;;;12.33;8.43;;;;;;;;;;4451650;32;20216;-56
2021/11/16 10:41:01;;;;;;;94.23;49.93;;;;;;;;;;4445854;32;20720;-55
2021/11/16 10:43:38;;;;;;;37.87;21.43;;;;;;;;;;4443435;32;20651;-56
2021/11/16 10:46:07;;;;;;;29.30;14.13;;;;;;;;;;4446719;32;20596;-54
2021/11/16 10:48:33;;;;;;;25.20;12.67;;;;;;;;;;4454951;32;20266;-55
2021/11/16 10:51:03;;;;;;;24.63;17.70;;;;;;;;;;4450725;32;20346;-56
2021/11/16 10:53:29;;;;;;;10.07;8.17;;;;;;;;;;4459515;32;20232;-55
2021/11/16 10:55:57;;;;;;;12.53;7.60;;;;;;;;;;4457129;32;20283;-56
2021/11/16 10:58:27;;;;;;;13.90;9.67;;;;;;;;;;4455123;32;20586;-55
2021/11/16 11:01:09;;;;;;;15.00;7.43;;;;;;;;;;4463998;32;20260;-56
2021/11/16 11:03:40;;;;;;;17.47;8.90;;;;;;;;;;4451907;32;20280;-56
2021/11/16 11:06:16;;;;;;;142.60;67.43;;;;;;;;;;4464278;32;20232;-55
2021/11/16 11:08:51;;;;;;;107.73;50.70;;;;;;;;;;4456089;32;20640;-56
2021/11/16 11:11:24;;;;;;;50.53;27.17;;;;;;;;;;4448171;32;20694;-55
2021/11/16 11:13:59;;;;;;;35.93;20.17;;;;;;;;;;4452791;32;20698;-55
2021/11/16 11:16:25;;;;;;;38.70;23.63;;;;;;;;;;4455855;32;20421;-55
2021/11/16 11:18:52;;;;;;;17.90;10.00;;;;;;;;;;4463328;32;20323;-56
2021/11/16 11:21:37;;;;;;;15.33;9.37;;;;;;;;;;4460437;32;20697;-57
2021/11/16 11:24:27;;;;;;;19.33;10.13;;;;;;;;;;4453484;32;20238;-56
2021/11/16 11:27:00;;;;;;;24.17;12.73;;;;;;;;;;4463879;32;20356;-55
2021/11/16 11:29:29;;;;;;;64.20;35.33;;;;;;;;;;4454442;32;20564;-55
2021/11/16 11:32:16;;;;;;;10.03;7.97;;;;;;;;;;4451748;32;20262;-56
2021/11/16 11:35:03;;;;;;;30.20;15.57;;;;;;;;;;4461217;32;20223;-55
2021/11/16 11:37:34;;;;;;;20.03;12.80;;;;;;;;;;4451243;32;20275;-56
2021/11/16 11:40:11;;;;;;;113.30;54.63;;;;;;;;;;4463128;32;20664;-56
2021/11/16 11:43:08;;;;;;;39.67;17.83;;;;;;;;;;4455977;32;20258;-55
2021/11/16 11:45:38;;;;;;;14.63;7.87;;;;;;;;;;4461324;32;20390;-56
2021/11/16 11:48:04;;;;;;;15.13;9.80;;;;;;;;;;4456299;32;20256;-55
2021/11/16 11:50:33;;;;;;;18.83;10.43;;;;;;;;;;4452542;32;20510;-56
2021/11/16 11:53:01;;;;;;;18.53;10.70;;;;;;;;;;4451406;32;20262;-55
2021/11/16 11:55:29;;;;;;;47.37;26.93;;;;;;;;;;4459566;32;20259;-55
2021/11/16 11:57:55;;;;;;;44.20;21.47;;;;;;;;;;4459087;32;20256;-57
2021/11/16 12:00:24;;;;;;;10.77;7.67;;;;;;;;;;4451813;32;20739;-55
2021/11/16 12:02:51;;;;;;;12.37;8.40;;;;;;;;;;4454499;32;20248;-56
2021/11/16 12:05:18;;;;;;;11.53;7.47;;;;;;;;;;4459855;32;20266;-57
2021/11/16 12:07:45;;;;;;;48.87;22.60;;;;;;;;;;4460761;32;20659;-55
2021/11/16 12:10:11;;;;;;;91.13;39.50;;;;;;;;;;4446290;32;20619;-56
2021/11/16 12:12:37;;;;;;;68.87;36.00;;;;;;;;;;4460992;32;20343;-55
2021/11/16 12:15:09;;;;;;;15.83;9.43;;;;;;;;;;4457983;32;20529;-55
2021/11/16 12:17:49;;;;;;;9.37;6.90;;;;;;;;;;4450324;32;20256;-55
2021/11/16 12:20:36;;;;;;;9.73;7.30;;;;;;;;;;4456603;32;20212;-56
2021/11/16 12:23:03;;;;;;;49.63;22.63;;;;;;;;;;4452188;32;20237;-55
2021/11/16 12:25:29;;;;;;;14.03;9.40;;;;;;;;;;4460786;32;20238;-57
2021/11/16 12:27:55;;;;;;;15.27;8.83;;;;;;;;;;4459941;32;20314;-57
2021/11/16 12:30:34;;;;;;;13.03;6.80;;;;;;;;;;4450125;32;20287;-55
2021/11/16 12:33:00;;;;;;;8.47;6.43;;;;;;;;;;4454464;32;20271;-56
2021/11/16 12:35:26;;;;;;;10.77;7.63;;;;;;;;;;4450090;32;20236;-56
2021/11/16 12:37:54;;;;;;;28.97;12.67;;;;;;;;;;4458865;32;20305;-55
2021/11/16 12:40:43;;;;;;;29.10;10.90;;;;;;;;;;4450905;32;20285;-56
2021/11/16 12:43:28;;;;;;;14.27;8.47;;;;;;;;;;4458552;32;20220;-55
2021/11/16 12:46:00;;;;;;;15.37;9.83;;;;;;;;;;4463235;32;20283;-56
2021/11/16 12:48:59;;;;;;;15.83;9.13;;;;;;;;;;4463325;32;20209;-55
2021/11/16 12:51:33;;;;;;;14.07;8.87;;;;;;;;;;4428741;32;20232;-56
2021/11/16 12:54:19;;;;;;;17.03;11.47;;;;;;;;;;4462297;32;20199;-55
2021/11/16 12:56:50;;;;;;;13.60;9.20;;;;;;;;;;4448118;32;20254;-55
2021/11/16 12:59:18;;;;;;;12.47;9.63;;;;;;;;;;4454916;32;20689;-55
2021/11/16 13:02:00;;;;;;;25.67;11.30;;;;;;;;;;4460815;32;20260;-55
2021/11/16 13:04:44;;;;;;;19.43;12.27;;;;;;;;;;4456229;32;20734;-56
2021/11/16 13:07:26;;;;;;;20.03;10.87;;;;;;;;;;4463410;32;20235;-55
2021/11/16 13:10:01;;;;;;;14.03;9.07;;;;;;;;;;4459152;32;20299;-54
2021/11/16 13:12:35;;;;;;;23.47;10.47;;;;;;;;;;4455691;32;20215;-55
2021/11/16 13:15:06;;;;;;;16.03;10.20;;;;;;;;;;4460243;32;20294;-55
2021/11/16 13:17:55;;;;;;;18.33;10.90;;;;;;;;;;4463528;32;20288;-55
2021/11/16 13:20:46;;;;;;;13.73;8.63;;;;;;;;;;4448372;32;20360;-55
2021/11/16 13:23:14;;;;;;;14.63;9.13;;;;;;;;;;4447841;32;20319;-55
2021/11/16 13:25:48;;;;;;;15.57;10.23;;;;;;;;;;4455063;32;20216;-56
2021/11/16 13:28:42;;;;;;;24.47;12.70;;;;;;;;;;4455064;32;20229;-58
2021/11/16 13:31:07;;;;;;;20.77;10.67;;;;;;;;;;4458982;32;20239;-55
2021/11/16 13:33:48;;;;;;;19.53;9.80;;;;;;;;;;4461442;32;20313;-55
2021/11/16 13:36:19;;;;;;;18.60;11.27;;;;;;;;;;4446379;32;20350;-57
2021/11/16 13:39:01;;;;;;;19.63;11.33;;;;;;;;;;4446614;32;20222;-56
2021/11/16 13:41:48;;;;;;;30.87;12.90;;;;;;;;;;4445963;32;20326;-55
2021/11/16 13:44:15;;;;;;;21.50;12.80;;;;;;;;;;4447260;32;20541;-56
2021/11/16 13:46:42;;;;;;;18.93;11.53;;;;;;;;;;4445207;32;20718;-55
2021/11/16 13:49:08;;;;;;;33.33;13.23;;;;;;;;;;4445738;32;20232;-55
2021/11/16 13:51:38;;;;;;;25.33;15.03;;;;;;;;;;4444308;32;20333;-56
2021/11/16 13:54:04;;;;;;;22.33;13.03;;;;;;;;;;4443457;32;20216;-55
2021/11/16 13:56:33;;;;;;;26.00;12.50;;;;;;;;;;4445518;32;20252;-55
2021/11/16 13:58:59;;;;;;;24.47;15.23;;;;;;;;;;4445443;32;20366;-56
2021/11/16 14:01:30;;;;;;;23.67;14.30;;;;;;;;;;4445990;32;20245;-55
2021/11/16 14:04:11;;;;;;;30.23;15.47;;;;;;;;;;4445337;32;20255;-55
2021/11/16 14:06:37;;;;;;;24.47;15.60;;;;;;;;;;4447168;32;20250;-56
2021/11/16 14:09:23;;;;;;;33.57;16.53;;;;;;;;;;4447088;32;20291;-54
2021/11/16 14:11:56;;;;;;;29.43;17.50;;;;;;;;;;4447680;32;20289;-56
2021/11/16 14:14:25;;;;;;;28.13;15.10;;;;;;;;;;4461998;32;20248;-55
2021/11/16 14:16:52;;;;;;;18.53;13.30;;;;;;;;;;4461843;32;20266;-55
2021/11/16 14:19:18;;;;;;;24.10;14.13;;;;;;;;;;4450376;32;20263;-55
2021/11/16 14:21:45;;;;;;;22.17;12.77;;;;;;;;;;4447129;32;20249;-56
2021/11/16 14:24:13;;;;;;;25.10;15.03;;;;;;;;;;4448408;32;20311;-55
2021/11/16 14:26:41;;;;;;;30.93;16.13;;;;;;;;;;4450072;32;20256;-55
2021/11/16 14:29:07;;;;;;;24.43;14.20;;;;;;;;;;4449728;32;20651;-55
2021/11/16 14:31:38;;;;;;;37.77;19.77;;;;;;;;;;4448748;32;20295;-56
2021/11/16 14:34:09;;;;;;;37.47;17.27;;;;;;;;;;4449615;32;20189;-56
2021/11/16 14:36:40;;;;;;;88.33;39.00;;;;;;;;;;4449960;32;20663;-55
2021/11/16 14:39:05;;;;;;;334.87;140.70;;;;;;;;;;4449598;32;20216;-55
2021/11/16 14:41:32;;;;;;;21.23;11.03;;;;;;;;;;4449826;32;20911;-57
2021/11/16 14:44:07;;;;;;;22.77;10.10;;;;;;;;;;4449861;32;20593;-56
2021/11/16 14:46:33;;;;;;;21.07;12.20;;;;;;;;;;4465014;32;20277;-55
2021/11/16 14:48:59;;;;;;;25.23;14.37;;;;;;;;;;4464006;32;20239;-55
2021/11/16 14:51:41;;;;;;;19.00;11.27;;;;;;;;;;4465098;32;20239;-54
2021/11/16 14:54:11;;;;;;;9.87;6.23;;;;;;;;;;4463003;32;20620;-55
2021/11/16 14:56:40;;;;;;;16.93;8.90;;;;;;;;;;4449855;32;20247;-55
2021/11/16 14:59:09;;;;;;;15.03;7.90;;;;;;;;;;4449189;32;20337;-55